sensor_id;sensor_type;location;lat;lon;timestamp;P1;durP1;ratioP1;P2;durP2;ratioP2
70416;SDS011;57839;51.332;12.410;2022-12-19T00:00:45;30.17;;;17.80;;
70416;SDS011;57839;51.332;12.410;2022-12-19T00:03:11;31.92;;;18.73;;
70416;SDS011;57839;51.332;12.410;2022-12-19T00:05:38;27.25;;;16.20;;
70416;SDS011;57839;51.332;12.410;2022-12-19T00:08:04;31.77;;;18.48;;
70416;SDS011;57839;51.332;12.410;2022-12-19T00:10:31;34.33;;;18.42;;
70416;SDS011;57839;51.332;12.410;2022-12-19T00:12:57;32.80;;;18.17;;
70416;SDS011;57839;51.332;12.410;2022-12-19T00:15:22;34.97;;;18.80;;
70416;SDS011;57839;51.332;12.410;2022-12-19T00:17:48;31.27;;;18.33;;
70416;SDS011;57839;51.332;12.410;2022-12-19T00:20:14;30.23;;;19.23;;
70416;SDS011;57839;51.332;12.410;2022-12-19T00:22:39;31.67;;;18.65;;
70416;SDS011;57839;51.332;12.410;2022-12-19T00:25:05;32.85;;;17.83;;
70416;SDS011;57839;51.332;12.410;2022-12-19T00:27:34;31.48;;;18.50;;
70416;SDS011;57839;51.332;12.410;2022-12-19T00:30:00;32.30;;;18.55;;
70416;SDS011;57839;51.332;12.410;2022-12-19T00:32:26;31.38;;;18.25;;
70416;SDS011;57839;51.332;12.410;2022-12-19T00:34:52;31.13;;;17.60;;
70416;SDS011;57839;51.332;12.410;2022-12-19T00:37:18;31.00;;;17.05;;
70416;SDS011;57839;51.332;12.410;2022-12-19T00:39:43;29.85;;;17.15;;
70416;SDS011;57839;51.332;12.410;2022-12-19T00:42:09;30.20;;;17.55;;
70416;SDS011;57839;51.332;12.410;2022-12-19T00:44:35;31.42;;;16.90;;
70416;SDS011;57839;51.332;12.410;2022-12-19T00:47:00;31.17;;;17.75;;
70416;SDS011;57839;51.332;12.410;2022-12-19T00:49:26;28.90;;;18.42;;
70416;SDS011;57839;51.332;12.410;2022-12-19T00:51:51;29.60;;;18.45;;
70416;SDS011;57839;51.332;12.410;2022-12-19T00:54:17;32.97;;;18.13;;
70416;SDS011;57839;51.332;12.410;2022-12-19T00:56:43;30.45;;;17.73;;
70416;SDS011;57839;51.332;12.410;2022-12-19T00:59:08;26.15;;;16.05;;
70416;SDS011;57839;51.332;12.410;2022-12-19T01:01:35;29.15;;;17.13;;
70416;SDS011;57839;51.332;12.410;2022-12-19T01:04:03;28.77;;;17.70;;
70416;SDS011;57839;51.332;12.410;2022-12-19T01:06:30;26.45;;;17.17;;
70416;SDS011;57839;51.332;12.410;2022-12-19T01:08:56;27.27;;;16.05;;
70416;SDS011;57839;51.332;12.410;2022-12-19T01:11:22;25.88;;;16.10;;
70416;SDS011;57839;51.332;12.410;2022-12-19T01:14:08;23.45;;;14.65;;
70416;SDS011;57839;51.332;12.410;2022-12-19T01:16:35;26.42;;;15.73;;
70416;SDS011;57839;51.332;12.410;2022-12-19T01:19:01;25.02;;;15.35;;
70416;SDS011;57839;51.332;12.410;2022-12-19T01:21:26;26.85;;;14.93;;
70416;SDS011;57839;51.332;12.410;2022-12-19T01:23:52;23.25;;;13.88;;
70416;SDS011;57839;51.332;12.410;2022-12-19T01:26:17;25.80;;;15.75;;
70416;SDS011;57839;51.332;12.410;2022-12-19T01:28:43;26.65;;;15.82;;
70416;SDS011;57839;51.332;12.410;2022-12-19T01:31:09;24.98;;;15.63;;
70416;SDS011;57839;51.332;12.410;2022-12-19T01:33:34;23.73;;;14.82;;
70416;SDS011;57839;51.332;12.410;2022-12-19T01:36:00;26.05;;;15.88;;
70416;SDS011;57839;51.332;12.410;2022-12-19T01:38:33;26.48;;;14.32;;
70416;SDS011;57839;51.332;12.410;2022-12-19T01:41:00;26.50;;;14.55;;
70416;SDS011;57839;51.332;12.410;2022-12-19T01:43:28;22.83;;;14.25;;
70416;SDS011;57839;51.332;12.410;2022-12-19T01:45:56;23.05;;;13.80;;
70416;SDS011;57839;51.332;12.410;2022-12-19T01:48:33;22.30;;;14.65;;
70416;SDS011;57839;51.332;12.410;2022-12-19T01:53:42;24.67;;;14.48;;
70416;SDS011;57839;51.332;12.410;2022-12-19T01:56:09;24.30;;;13.57;;
70416;SDS011;57839;51.332;12.410;2022-12-19T01:58:36;25.30;;;14.88;;
70416;SDS011;57839;51.332;12.410;2022-12-19T02:01:03;23.58;;;13.50;;
70416;SDS011;57839;51.332;12.410;2022-12-19T02:03:29;22.80;;;13.23;;
70416;SDS011;57839;51.332;12.410;2022-12-19T02:05:56;23.23;;;13.20;;
70416;SDS011;57839;51.332;12.410;2022-12-19T02:08:23;22.52;;;12.75;;
70416;SDS011;57839;51.332;12.410;2022-12-19T02:10:49;24.35;;;13.35;;
70416;SDS011;57839;51.332;12.410;2022-12-19T02:13:15;21.52;;;12.55;;
70416;SDS011;57839;51.332;12.410;2022-12-19T02:15:59;25.17;;;13.75;;
70416;SDS011;57839;51.332;12.410;2022-12-19T02:18:37;24.90;;;13.15;;
70416;SDS011;57839;51.332;12.410;2022-12-19T02:24:32;23.13;;;12.68;;
70416;SDS011;57839;51.332;12.410;2022-12-19T02:32:32;20.10;;;11.57;;
70416;SDS011;57839;51.332;12.410;2022-12-19T02:37:43;21.70;;;11.52;;
70416;SDS011;57839;51.332;12.410;2022-12-19T02:40:14;23.67;;;12.20;;
70416;SDS011;57839;51.332;12.410;2022-12-19T02:42:45;22.40;;;11.13;;
70416;SDS011;57839;51.332;12.410;2022-12-19T02:45:13;19.42;;;11.73;;
70416;SDS011;57839;51.332;12.410;2022-12-19T02:47:39;21.65;;;11.50;;
70416;SDS011;57839;51.332;12.410;2022-12-19T02:50:06;20.17;;;10.80;;
70416;SDS011;57839;51.332;12.410;2022-12-19T02:55:05;17.92;;;9.80;;
70416;SDS011;57839;51.332;12.410;2022-12-19T02:57:37;18.52;;;9.30;;
70416;SDS011;57839;51.332;12.410;2022-12-19T03:00:16;15.70;;;9.52;;
70416;SDS011;57839;51.332;12.410;2022-12-19T03:02:52;14.23;;;8.32;;
70416;SDS011;57839;51.332;12.410;2022-12-19T03:05:33;16.40;;;9.75;;
70416;SDS011;57839;51.332;12.410;2022-12-19T03:10:57;16.33;;;9.32;;
70416;SDS011;57839;51.332;12.410;2022-12-19T03:13:26;20.60;;;10.95;;
70416;SDS011;57839;51.332;12.410;2022-12-19T03:15:54;19.13;;;9.60;;
70416;SDS011;57839;51.332;12.410;2022-12-19T03:18:21;19.75;;;10.55;;
70416;SDS011;57839;51.332;12.410;2022-12-19T03:20:49;18.42;;;9.23;;
70416;SDS011;57839;51.332;12.410;2022-12-19T03:23:18;20.13;;;10.90;;
70416;SDS011;57839;51.332;12.410;2022-12-19T03:25:47;18.05;;;9.88;;
70416;SDS011;57839;51.332;12.410;2022-12-19T03:28:38;22.77;;;11.40;;
70416;SDS011;57839;51.332;12.410;2022-12-19T03:31:05;18.25;;;9.80;;
70416;SDS011;57839;51.332;12.410;2022-12-19T03:33:31;20.60;;;10.80;;
70416;SDS011;57839;51.332;12.410;2022-12-19T03:35:58;18.77;;;10.15;;
70416;SDS011;57839;51.332;12.410;2022-12-19T03:38:24;21.40;;;11.00;;
70416;SDS011;57839;51.332;12.410;2022-12-19T03:40:50;21.77;;;10.18;;
70416;SDS011;57839;51.332;12.410;2022-12-19T03:43:17;20.40;;;10.65;;
70416;SDS011;57839;51.332;12.410;2022-12-19T03:48:35;19.42;;;10.88;;
70416;SDS011;57839;51.332;12.410;2022-12-19T04:02:05;25.15;;;12.23;;
70416;SDS011;57839;51.332;12.410;2022-12-19T04:04:33;22.25;;;12.27;;
70416;SDS011;57839;51.332;12.410;2022-12-19T04:07:01;23.90;;;11.90;;
70416;SDS011;57839;51.332;12.410;2022-12-19T04:09:27;21.83;;;11.45;;
70416;SDS011;57839;51.332;12.410;2022-12-19T04:11:56;20.63;;;10.90;;
70416;SDS011;57839;51.332;12.410;2022-12-19T04:14:27;22.95;;;11.88;;
70416;SDS011;57839;51.332;12.410;2022-12-19T04:22:26;24.08;;;12.23;;
70416;SDS011;57839;51.332;12.410;2022-12-19T04:24:58;20.73;;;12.23;;
70416;SDS011;57839;51.332;12.410;2022-12-19T04:27:24;22.13;;;11.50;;
70416;SDS011;57839;51.332;12.410;2022-12-19T04:29:52;27.50;;;12.02;;
70416;SDS011;57839;51.332;12.410;2022-12-19T04:32:20;24.17;;;12.70;;
70416;SDS011;57839;51.332;12.410;2022-12-19T04:34:46;22.88;;;12.18;;
70416;SDS011;57839;51.332;12.410;2022-12-19T04:37:12;25.98;;;13.45;;
70416;SDS011;57839;51.332;12.410;2022-12-19T04:39:37;28.45;;;13.23;;
70416;SDS011;57839;51.332;12.410;2022-12-19T04:42:03;27.30;;;13.45;;
70416;SDS011;57839;51.332;12.410;2022-12-19T04:44:29;24.17;;;13.15;;
70416;SDS011;57839;51.332;12.410;2022-12-19T04:46:54;26.65;;;13.70;;
70416;SDS011;57839;51.332;12.410;2022-12-19T04:49:20;26.58;;;13.10;;
70416;SDS011;57839;51.332;12.410;2022-12-19T04:51:45;26.60;;;13.95;;
70416;SDS011;57839;51.332;12.410;2022-12-19T04:54:11;26.27;;;13.40;;
70416;SDS011;57839;51.332;12.410;2022-12-19T04:56:37;27.80;;;14.40;;
70416;SDS011;57839;51.332;12.410;2022-12-19T04:59:02;25.10;;;13.60;;
70416;SDS011;57839;51.332;12.410;2022-12-19T05:01:28;26.80;;;14.90;;
70416;SDS011;57839;51.332;12.410;2022-12-19T05:03:53;25.40;;;13.95;;
70416;SDS011;57839;51.332;12.410;2022-12-19T05:06:19;25.42;;;13.07;;
70416;SDS011;57839;51.332;12.410;2022-12-19T05:08:45;27.10;;;14.43;;
70416;SDS011;57839;51.332;12.410;2022-12-19T05:11:12;24.80;;;13.77;;
70416;SDS011;57839;51.332;12.410;2022-12-19T05:13:38;32.65;;;15.05;;
70416;SDS011;57839;51.332;12.410;2022-12-19T05:16:05;28.90;;;14.35;;
70416;SDS011;57839;51.332;12.410;2022-12-19T05:18:33;25.63;;;13.48;;
70416;SDS011;57839;51.332;12.410;2022-12-19T05:20:59;27.05;;;13.63;;
70416;SDS011;57839;51.332;12.410;2022-12-19T05:23:25;27.33;;;14.10;;
70416;SDS011;57839;51.332;12.410;2022-12-19T05:25:51;25.17;;;13.55;;
70416;SDS011;57839;51.332;12.410;2022-12-19T05:28:17;25.98;;;13.60;;
70416;SDS011;57839;51.332;12.410;2022-12-19T05:30:43;27.55;;;13.43;;
70416;SDS011;57839;51.332;12.410;2022-12-19T05:33:09;25.65;;;13.07;;
70416;SDS011;57839;51.332;12.410;2022-12-19T05:35:35;26.95;;;13.30;;
70416;SDS011;57839;51.332;12.410;2022-12-19T05:38:01;26.20;;;13.98;;
70416;SDS011;57839;51.332;12.410;2022-12-19T05:40:26;27.02;;;13.57;;
70416;SDS011;57839;51.332;12.410;2022-12-19T05:42:52;24.55;;;13.20;;
70416;SDS011;57839;51.332;12.410;2022-12-19T05:45:18;30.38;;;14.57;;
70416;SDS011;57839;51.332;12.410;2022-12-19T05:47:45;24.73;;;13.57;;
70416;SDS011;57839;51.332;12.410;2022-12-19T05:50:11;27.48;;;14.27;;
70416;SDS011;57839;51.332;12.410;2022-12-19T05:52:38;26.73;;;14.00;;
70416;SDS011;57839;51.332;12.410;2022-12-19T05:55:04;25.85;;;13.65;;
70416;SDS011;57839;51.332;12.410;2022-12-19T05:57:30;27.60;;;13.77;;
70416;SDS011;57839;51.332;12.410;2022-12-19T05:59:56;25.95;;;13.75;;
70416;SDS011;57839;51.332;12.410;2022-12-19T06:02:22;24.00;;;13.60;;
70416;SDS011;57839;51.332;12.410;2022-12-19T06:04:48;25.70;;;14.73;;
70416;SDS011;57839;51.332;12.410;2022-12-19T06:07:14;28.23;;;14.05;;
70416;SDS011;57839;51.332;12.410;2022-12-19T06:09:39;26.75;;;14.02;;
70416;SDS011;57839;51.332;12.410;2022-12-19T06:12:05;24.13;;;13.82;;
70416;SDS011;57839;51.332;12.410;2022-12-19T06:14:31;26.83;;;14.43;;
70416;SDS011;57839;51.332;12.410;2022-12-19T06:16:57;23.35;;;13.35;;
70416;SDS011;57839;51.332;12.410;2022-12-19T06:19:22;25.40;;;13.95;;
70416;SDS011;57839;51.332;12.410;2022-12-19T06:21:48;29.25;;;14.60;;
70416;SDS011;57839;51.332;12.410;2022-12-19T06:24:14;26.17;;;14.50;;
70416;SDS011;57839;51.332;12.410;2022-12-19T06:26:40;27.63;;;14.45;;
70416;SDS011;57839;51.332;12.410;2022-12-19T06:29:05;29.90;;;14.27;;
70416;SDS011;57839;51.332;12.410;2022-12-19T06:31:31;27.85;;;14.80;;
70416;SDS011;57839;51.332;12.410;2022-12-19T06:33:57;28.55;;;13.95;;
70416;SDS011;57839;51.332;12.410;2022-12-19T06:36:26;29.15;;;15.00;;
70416;SDS011;57839;51.332;12.410;2022-12-19T06:38:54;28.27;;;15.23;;
70416;SDS011;57839;51.332;12.410;2022-12-19T06:41:21;30.25;;;13.93;;
70416;SDS011;57839;51.332;12.410;2022-12-19T06:44:07;28.45;;;15.20;;
70416;SDS011;57839;51.332;12.410;2022-12-19T06:46:34;25.02;;;14.23;;
70416;SDS011;57839;51.332;12.410;2022-12-19T06:49:00;29.65;;;14.60;;
70416;SDS011;57839;51.332;12.410;2022-12-19T06:51:26;29.30;;;14.73;;
70416;SDS011;57839;51.332;12.410;2022-12-19T06:53:52;25.23;;;13.18;;
70416;SDS011;57839;51.332;12.410;2022-12-19T06:56:18;24.85;;;13.10;;
70416;SDS011;57839;51.332;12.410;2022-12-19T06:58:44;25.92;;;14.15;;
70416;SDS011;57839;51.332;12.410;2022-12-19T07:01:23;23.38;;;13.50;;
70416;SDS011;57839;51.332;12.410;2022-12-19T07:04:14;25.33;;;14.07;;
70416;SDS011;57839;51.332;12.410;2022-12-19T07:06:41;29.83;;;14.55;;
70416;SDS011;57839;51.332;12.410;2022-12-19T07:09:07;28.50;;;13.43;;
70416;SDS011;57839;51.332;12.410;2022-12-19T07:11:33;28.38;;;15.32;;
70416;SDS011;57839;51.332;12.410;2022-12-19T07:13:58;26.40;;;13.82;;
70416;SDS011;57839;51.332;12.410;2022-12-19T07:16:24;27.67;;;14.00;;
70416;SDS011;57839;51.332;12.410;2022-12-19T07:18:50;27.70;;;14.38;;
70416;SDS011;57839;51.332;12.410;2022-12-19T07:21:15;26.83;;;14.13;;
70416;SDS011;57839;51.332;12.410;2022-12-19T07:23:41;28.63;;;14.68;;
70416;SDS011;57839;51.332;12.410;2022-12-19T07:26:07;30.48;;;14.55;;
70416;SDS011;57839;51.332;12.410;2022-12-19T07:28:32;26.20;;;13.95;;
70416;SDS011;57839;51.332;12.410;2022-12-19T07:30:59;27.02;;;14.10;;
70416;SDS011;57839;51.332;12.410;2022-12-19T07:33:24;25.45;;;13.73;;
70416;SDS011;57839;51.332;12.410;2022-12-19T07:35:50;25.95;;;14.35;;
70416;SDS011;57839;51.332;12.410;2022-12-19T07:38:16;27.30;;;14.25;;
70416;SDS011;57839;51.332;12.410;2022-12-19T07:41:07;28.40;;;14.90;;
70416;SDS011;57839;51.332;12.410;2022-12-19T07:43:41;28.02;;;15.00;;
70416;SDS011;57839;51.332;12.410;2022-12-19T07:46:07;28.55;;;14.23;;
70416;SDS011;57839;51.332;12.410;2022-12-19T07:48:32;29.90;;;14.65;;
70416;SDS011;57839;51.332;12.410;2022-12-19T07:50:58;27.40;;;14.95;;
70416;SDS011;57839;51.332;12.410;2022-12-19T07:53:24;29.73;;;14.43;;
70416;SDS011;57839;51.332;12.410;2022-12-19T07:55:50;25.77;;;14.00;;
70416;SDS011;57839;51.332;12.410;2022-12-19T07:58:16;28.25;;;14.63;;
70416;SDS011;57839;51.332;12.410;2022-12-19T08:00:42;28.25;;;13.10;;
70416;SDS011;57839;51.332;12.410;2022-12-19T08:03:07;30.27;;;14.13;;
70416;SDS011;57839;51.332;12.410;2022-12-19T08:05:33;28.17;;;12.90;;
70416;SDS011;57839;51.332;12.410;2022-12-19T08:07:59;30.98;;;14.45;;
70416;SDS011;57839;51.332;12.410;2022-12-19T08:10:24;29.23;;;15.05;;
70416;SDS011;57839;51.332;12.410;2022-12-19T08:12:50;27.77;;;14.43;;
70416;SDS011;57839;51.332;12.410;2022-12-19T08:15:16;27.40;;;13.85;;
70416;SDS011;57839;51.332;12.410;2022-12-19T08:17:42;28.70;;;14.20;;
70416;SDS011;57839;51.332;12.410;2022-12-19T08:20:07;24.83;;;12.82;;
70416;SDS011;57839;51.332;12.410;2022-12-19T08:22:35;27.67;;;13.25;;
70416;SDS011;57839;51.332;12.410;2022-12-19T08:25:01;26.73;;;13.45;;
70416;SDS011;57839;51.332;12.410;2022-12-19T08:27:27;25.08;;;13.90;;
70416;SDS011;57839;51.332;12.410;2022-12-19T08:29:52;26.08;;;13.30;;
70416;SDS011;57839;51.332;12.410;2022-12-19T08:32:18;25.27;;;14.35;;
70416;SDS011;57839;51.332;12.410;2022-12-19T08:34:44;26.40;;;14.23;;
70416;SDS011;57839;51.332;12.410;2022-12-19T08:37:10;25.50;;;13.30;;
70416;SDS011;57839;51.332;12.410;2022-12-19T08:39:36;26.83;;;13.10;;
70416;SDS011;57839;51.332;12.410;2022-12-19T08:42:01;28.35;;;13.18;;
70416;SDS011;57839;51.332;12.410;2022-12-19T08:44:27;25.25;;;13.25;;
70416;SDS011;57839;51.332;12.410;2022-12-19T08:46:53;24.40;;;13.70;;
70416;SDS011;57839;51.332;12.410;2022-12-19T08:49:18;26.42;;;14.07;;
70416;SDS011;57839;51.332;12.410;2022-12-19T08:51:44;25.70;;;14.63;;
70416;SDS011;57839;51.332;12.410;2022-12-19T08:54:10;27.65;;;15.73;;
70416;SDS011;57839;51.332;12.410;2022-12-19T08:56:36;27.77;;;13.98;;
70416;SDS011;57839;51.332;12.410;2022-12-19T08:59:02;30.98;;;15.63;;
70416;SDS011;57839;51.332;12.410;2022-12-19T09:01:28;26.27;;;14.13;;
70416;SDS011;57839;51.332;12.410;2022-12-19T09:03:56;27.95;;;14.35;;
70416;SDS011;57839;51.332;12.410;2022-12-19T09:06:22;30.73;;;15.15;;
70416;SDS011;57839;51.332;12.410;2022-12-19T09:08:48;31.55;;;16.02;;
70416;SDS011;57839;51.332;12.410;2022-12-19T09:11:14;29.60;;;15.55;;
70416;SDS011;57839;51.332;12.410;2022-12-19T09:13:41;33.00;;;15.88;;
70416;SDS011;57839;51.332;12.410;2022-12-19T09:16:12;29.40;;;14.65;;
70416;SDS011;57839;51.332;12.410;2022-12-19T09:18:39;29.60;;;15.55;;
70416;SDS011;57839;51.332;12.410;2022-12-19T09:21:06;31.27;;;15.40;;
70416;SDS011;57839;51.332;12.410;2022-12-19T09:23:32;32.67;;;16.58;;
70416;SDS011;57839;51.332;12.410;2022-12-19T09:26:08;31.02;;;15.73;;
70416;SDS011;57839;51.332;12.410;2022-12-19T09:28:35;32.17;;;15.65;;
70416;SDS011;57839;51.332;12.410;2022-12-19T09:31:16;31.48;;;16.55;;
70416;SDS011;57839;51.332;12.410;2022-12-19T09:33:43;36.45;;;16.92;;
70416;SDS011;57839;51.332;12.410;2022-12-19T09:36:14;33.67;;;16.10;;
70416;SDS011;57839;51.332;12.410;2022-12-19T09:41:28;32.63;;;17.15;;
70416;SDS011;57839;51.332;12.410;2022-12-19T09:49:35;38.28;;;18.70;;
70416;SDS011;57839;51.332;12.410;2022-12-19T10:00:21;32.63;;;17.55;;
70416;SDS011;57839;51.332;12.410;2022-12-19T10:02:59;36.10;;;18.48;;
70416;SDS011;57839;51.332;12.410;2022-12-19T10:07:58;34.70;;;17.25;;
70416;SDS011;57839;51.332;12.410;2022-12-19T10:10:49;37.08;;;16.95;;
70416;SDS011;57839;51.332;12.410;2022-12-19T10:19:02;37.17;;;19.13;;
70416;SDS011;57839;51.332;12.410;2022-12-19T10:21:48;36.85;;;19.02;;
70416;SDS011;57839;51.332;12.410;2022-12-19T10:30:24;41.00;;;20.20;;
70416;SDS011;57839;51.332;12.410;2022-12-19T10:35:53;42.58;;;19.77;;
70416;SDS011;57839;51.332;12.410;2022-12-19T10:41:29;43.83;;;21.17;;
70416;SDS011;57839;51.332;12.410;2022-12-19T10:44:00;44.25;;;21.00;;
70416;SDS011;57839;51.332;12.410;2022-12-19T10:46:40;41.83;;;19.73;;
70416;SDS011;57839;51.332;12.410;2022-12-19T10:49:20;38.42;;;19.65;;
70416;SDS011;57839;51.332;12.410;2022-12-19T10:52:00;44.92;;;20.85;;
70416;SDS011;57839;51.332;12.410;2022-12-19T11:04:56;46.97;;;20.05;;
70416;SDS011;57839;51.332;12.410;2022-12-19T11:07:22;41.78;;;19.40;;
70416;SDS011;57839;51.332;12.410;2022-12-19T11:09:48;42.03;;;19.20;;
70416;SDS011;57839;51.332;12.410;2022-12-19T11:12:14;42.53;;;18.38;;
70416;SDS011;57839;51.332;12.410;2022-12-19T11:14:43;48.28;;;20.88;;
70416;SDS011;57839;51.332;12.410;2022-12-19T11:17:26;44.40;;;20.25;;
70416;SDS011;57839;51.332;12.410;2022-12-19T11:22:44;47.65;;;23.13;;
70416;SDS011;57839;51.332;12.410;2022-12-19T11:25:34;45.40;;;20.17;;
70416;SDS011;57839;51.332;12.410;2022-12-19T11:28:13;41.45;;;21.55;;
70416;SDS011;57839;51.332;12.410;2022-12-19T11:30:42;44.88;;;21.35;;
70416;SDS011;57839;51.332;12.410;2022-12-19T11:33:15;47.60;;;20.95;;
70416;SDS011;57839;51.332;12.410;2022-12-19T11:38:12;45.75;;;20.73;;
70416;SDS011;57839;51.332;12.410;2022-12-19T11:43:33;43.05;;;19.67;;
70416;SDS011;57839;51.332;12.410;2022-12-19T11:49:11;43.45;;;20.45;;
70416;SDS011;57839;51.332;12.410;2022-12-19T11:57:20;41.80;;;19.70;;
70416;SDS011;57839;51.332;12.410;2022-12-19T11:59:46;42.10;;;20.13;;
70416;SDS011;57839;51.332;12.410;2022-12-19T12:05:24;43.42;;;20.90;;
70416;SDS011;57839;51.332;12.410;2022-12-19T12:10:56;44.40;;;19.50;;
70416;SDS011;57839;51.332;12.410;2022-12-19T12:13:33;41.80;;;19.67;;
70416;SDS011;57839;51.332;12.410;2022-12-19T12:16:12;42.65;;;20.48;;
70416;SDS011;57839;51.332;12.410;2022-12-19T12:22:08;46.53;;;18.55;;
70416;SDS011;57839;51.332;12.410;2022-12-19T12:27:49;47.15;;;21.15;;
70416;SDS011;57839;51.332;12.410;2022-12-19T12:33:52;41.63;;;20.15;;
70416;SDS011;57839;51.332;12.410;2022-12-19T12:36:25;43.60;;;21.63;;
70416;SDS011;57839;51.332;12.410;2022-12-19T12:39:03;49.08;;;22.67;;
70416;SDS011;57839;51.332;12.410;2022-12-19T12:47:11;41.03;;;18.67;;
70416;SDS011;57839;51.332;12.410;2022-12-19T12:52:35;46.58;;;19.98;;
70416;SDS011;57839;51.332;12.410;2022-12-19T12:55:11;40.35;;;18.35;;
70416;SDS011;57839;51.332;12.410;2022-12-19T12:57:42;44.85;;;19.17;;
70416;SDS011;57839;51.332;12.410;2022-12-19T13:10:55;41.75;;;20.40;;
70416;SDS011;57839;51.332;12.410;2022-12-19T13:19:14;47.28;;;21.02;;
70416;SDS011;57839;51.332;12.410;2022-12-19T13:24:36;50.70;;;22.67;;
70416;SDS011;57839;51.332;12.410;2022-12-19T13:35:02;44.78;;;20.95;;
70416;SDS011;57839;51.332;12.410;2022-12-19T13:37:58;46.75;;;20.90;;
70416;SDS011;57839;51.332;12.410;2022-12-19T13:40:32;46.95;;;21.30;;
70416;SDS011;57839;51.332;12.410;2022-12-19T13:45:50;42.58;;;18.92;;
70416;SDS011;57839;51.332;12.410;2022-12-19T13:48:42;39.95;;;20.20;;
70416;SDS011;57839;51.332;12.410;2022-12-19T13:51:14;47.08;;;21.42;;
70416;SDS011;57839;51.332;12.410;2022-12-19T13:53:40;45.58;;;21.73;;
70416;SDS011;57839;51.332;12.410;2022-12-19T13:56:14;48.97;;;20.98;;
70416;SDS011;57839;51.332;12.410;2022-12-19T14:01:14;41.10;;;19.60;;
70416;SDS011;57839;51.332;12.410;2022-12-19T14:03:42;43.58;;;21.33;;
70416;SDS011;57839;51.332;12.410;2022-12-19T14:06:19;46.13;;;21.23;;
70416;SDS011;57839;51.332;12.410;2022-12-19T14:08:47;53.83;;;23.30;;
70416;SDS011;57839;51.332;12.410;2022-12-19T14:11:14;50.33;;;22.17;;
70416;SDS011;57839;51.332;12.410;2022-12-19T14:13:50;45.03;;;20.95;;
70416;SDS011;57839;51.332;12.410;2022-12-19T14:16:37;56.25;;;26.95;;
70416;SDS011;57839;51.332;12.410;2022-12-19T14:19:03;47.97;;;22.60;;
70416;SDS011;57839;51.332;12.410;2022-12-19T14:21:28;42.15;;;19.60;;
70416;SDS011;57839;51.332;12.410;2022-12-19T14:24:12;43.78;;;20.63;;
70416;SDS011;57839;51.332;12.410;2022-12-19T14:26:41;44.30;;;20.65;;
70416;SDS011;57839;51.332;12.410;2022-12-19T14:29:15;50.58;;;20.23;;
70416;SDS011;57839;51.332;12.410;2022-12-19T14:31:49;43.25;;;19.38;;
70416;SDS011;57839;51.332;12.410;2022-12-19T14:34:28;44.72;;;20.23;;
70416;SDS011;57839;51.332;12.410;2022-12-19T14:36:56;42.83;;;19.42;;
70416;SDS011;57839;51.332;12.410;2022-12-19T14:39:32;44.83;;;21.05;;
70416;SDS011;57839;51.332;12.410;2022-12-19T14:42:02;49.70;;;20.73;;
70416;SDS011;57839;51.332;12.410;2022-12-19T14:44:52;51.78;;;21.70;;
70416;SDS011;57839;51.332;12.410;2022-12-19T14:47:23;45.47;;;21.10;;
70416;SDS011;57839;51.332;12.410;2022-12-19T14:49:58;50.35;;;22.55;;
70416;SDS011;57839;51.332;12.410;2022-12-19T14:57:49;52.45;;;22.15;;
70416;SDS011;57839;51.332;12.410;2022-12-19T15:00:25;46.90;;;19.92;;
70416;SDS011;57839;51.332;12.410;2022-12-19T15:02:52;45.13;;;20.40;;
70416;SDS011;57839;51.332;12.410;2022-12-19T15:05:19;47.38;;;20.67;;
70416;SDS011;57839;51.332;12.410;2022-12-19T15:07:46;49.80;;;21.92;;
70416;SDS011;57839;51.332;12.410;2022-12-19T15:10:21;55.42;;;22.17;;
70416;SDS011;57839;51.332;12.410;2022-12-19T15:12:50;55.75;;;26.02;;
70416;SDS011;57839;51.332;12.410;2022-12-19T15:15:58;62.40;;;23.88;;
70416;SDS011;57839;51.332;12.410;2022-12-19T15:18:26;51.70;;;20.55;;
70416;SDS011;57839;51.332;12.410;2022-12-19T15:21:04;52.23;;;23.57;;
70416;SDS011;57839;51.332;12.410;2022-12-19T15:23:32;47.83;;;22.23;;
70416;SDS011;57839;51.332;12.410;2022-12-19T15:26:02;59.13;;;23.17;;
70416;SDS011;57839;51.332;12.410;2022-12-19T15:28:40;48.78;;;21.90;;
70416;SDS011;57839;51.332;12.410;2022-12-19T15:33:50;56.90;;;24.23;;
70416;SDS011;57839;51.332;12.410;2022-12-19T15:36:16;49.05;;;21.73;;
70416;SDS011;57839;51.332;12.410;2022-12-19T15:38:41;48.50;;;20.92;;
70416;SDS011;57839;51.332;12.410;2022-12-19T15:41:10;48.40;;;21.23;;
70416;SDS011;57839;51.332;12.410;2022-12-19T15:43:39;48.83;;;22.25;;
70416;SDS011;57839;51.332;12.410;2022-12-19T15:46:04;47.00;;;21.30;;
70416;SDS011;57839;51.332;12.410;2022-12-19T15:48:30;55.30;;;23.02;;
70416;SDS011;57839;51.332;12.410;2022-12-19T15:50:57;50.25;;;22.30;;
70416;SDS011;57839;51.332;12.410;2022-12-19T15:53:27;47.58;;;21.23;;
70416;SDS011;57839;51.332;12.410;2022-12-19T15:55:54;47.88;;;22.77;;
70416;SDS011;57839;51.332;12.410;2022-12-19T15:58:21;51.00;;;21.55;;
70416;SDS011;57839;51.332;12.410;2022-12-19T16:00:51;50.58;;;21.55;;
70416;SDS011;57839;51.332;12.410;2022-12-19T16:03:18;51.55;;;22.73;;
70416;SDS011;57839;51.332;12.410;2022-12-19T16:05:44;45.65;;;20.48;;
70416;SDS011;57839;51.332;12.410;2022-12-19T16:08:17;50.15;;;21.88;;
70416;SDS011;57839;51.332;12.410;2022-12-19T16:10:44;48.60;;;21.50;;
70416;SDS011;57839;51.332;12.410;2022-12-19T16:13:15;47.30;;;21.98;;
70416;SDS011;57839;51.332;12.410;2022-12-19T16:15:43;51.08;;;24.20;;
70416;SDS011;57839;51.332;12.410;2022-12-19T16:18:10;49.67;;;22.42;;
70416;SDS011;57839;51.332;12.410;2022-12-19T16:20:38;46.30;;;21.90;;
70416;SDS011;57839;51.332;12.410;2022-12-19T16:23:04;48.53;;;21.15;;
70416;SDS011;57839;51.332;12.410;2022-12-19T16:28:03;43.78;;;20.98;;
70416;SDS011;57839;51.332;12.410;2022-12-19T16:30:32;54.25;;;23.45;;
70416;SDS011;57839;51.332;12.410;2022-12-19T16:32:58;49.38;;;22.65;;
70416;SDS011;57839;51.332;12.410;2022-12-19T16:35:25;46.95;;;21.60;;
70416;SDS011;57839;51.332;12.410;2022-12-19T16:37:51;43.70;;;20.90;;
70416;SDS011;57839;51.332;12.410;2022-12-19T16:40:18;193.50;;;94.00;;
70416;SDS011;57839;51.332;12.410;2022-12-19T16:42:45;48.10;;;21.35;;
70416;SDS011;57839;51.332;12.410;2022-12-19T16:45:15;43.78;;;20.65;;
70416;SDS011;57839;51.332;12.410;2022-12-19T16:47:48;45.90;;;22.17;;
70416;SDS011;57839;51.332;12.410;2022-12-19T16:50:22;49.85;;;23.63;;
70416;SDS011;57839;51.332;12.410;2022-12-19T16:52:50;48.22;;;22.15;;
70416;SDS011;57839;51.332;12.410;2022-12-19T16:55:16;41.13;;;21.23;;
70416;SDS011;57839;51.332;12.410;2022-12-19T16:57:42;40.97;;;21.30;;
70416;SDS011;57839;51.332;12.410;2022-12-19T17:00:10;50.75;;;22.77;;
70416;SDS011;57839;51.332;12.410;2022-12-19T17:02:40;43.80;;;21.98;;
70416;SDS011;57839;51.332;12.410;2022-12-19T17:05:23;50.33;;;23.33;;
70416;SDS011;57839;51.332;12.410;2022-12-19T17:07:51;42.88;;;21.58;;
70416;SDS011;57839;51.332;12.410;2022-12-19T17:10:18;46.85;;;23.30;;